Terminal Aerodrome Forecast
Issued by NWS Mt. Holly, NJ

Home | Current Version | Previous Version | Text Only | Print | Product List | Glossary On
Versions: 1 2 3 4 5 6 7 8 9 10 11 12 13 14 15 16 17
000
FTUS41 KPHI 222320
TAFABE
TAF
KABE 222320Z 2300/2324 30008KT P6SM SCT100
     FM230300 34005KT P6SM SKC
     FM231400 32005KT P6SM SKC
     FM231900 27006KT P6SM FEW250=

USA.gov is the U.S. government's official web portal to all federal, state and local government web resources and services.